createdAt,value
2023-05-05T00:01:41.024Z,63.21
2023-05-05T00:04:10.528Z,62.47
2023-05-05T00:06:38.708Z,62.83
2023-05-05T00:09:07.132Z,62.80
2023-05-05T00:11:35.286Z,62.57
2023-05-05T00:14:03.378Z,62.54
2023-05-05T00:16:31.583Z,62.07
2023-05-05T00:19:01.149Z,61.92
2023-05-05T00:21:31.030Z,62.09
2023-05-05T00:23:59.298Z,61.55
2023-05-05T00:26:27.377Z,61.37
2023-05-05T00:28:55.506Z,61.88
2023-05-05T00:31:23.753Z,62.04
2023-05-05T00:33:51.985Z,62.01
2023-05-05T00:36:20.337Z,61.75
2023-05-05T00:38:49.858Z,62.04
2023-05-05T00:41:17.919Z,63.03
2023-05-05T00:43:46.297Z,63.41
2023-05-05T00:46:23.424Z,63.37
2023-05-05T00:48:52.353Z,62.82
2023-05-05T00:51:22.139Z,63.17
2023-05-05T00:54:17.659Z,63.20
2023-05-05T00:56:45.911Z,63.30
2023-05-05T00:59:14.208Z,63.50
2023-05-05T01:01:42.499Z,63.02
2023-05-05T01:04:10.824Z,63.12
2023-05-05T01:06:55.207Z,63.70
2023-05-05T01:09:36.219Z,63.20
2023-05-05T01:12:16.166Z,63.04
2023-05-05T01:14:48.463Z,63.18
2023-05-05T01:17:19.001Z,62.82
2023-05-05T01:20:00.197Z,62.25
2023-05-05T01:22:35.040Z,62.43
2023-05-05T01:25:45.694Z,62.53
2023-05-05T01:28:25.526Z,62.57
2023-05-05T01:31:07.467Z,62.30
2023-05-05T01:33:44.904Z,62.52
2023-05-05T01:36:22.673Z,62.80
2023-05-05T01:38:56.304Z,63.33
2023-05-05T01:41:29.176Z,62.84
2023-05-05T01:44:00.852Z,63.04
2023-05-05T01:46:29.567Z,62.99
2023-05-05T01:49:00.185Z,62.98
2023-05-05T01:51:29.187Z,63.05
2023-05-05T01:54:00.204Z,63.19
2023-05-05T01:56:31.049Z,63.66
2023-05-05T01:59:01.617Z,63.85
2023-05-05T02:01:31.945Z,63.55
2023-05-05T02:04:04.365Z,63.71
2023-05-05T02:06:34.714Z,63.05
2023-05-05T02:09:03.862Z,63.25
2023-05-05T02:11:32.747Z,63.75
2023-05-05T02:14:02.023Z,62.25
2023-05-05T02:16:31.238Z,62.92
2023-05-05T02:19:05.177Z,62.89
2023-05-05T02:21:34.871Z,63.17
2023-05-05T02:24:04.784Z,62.34
2023-05-05T02:26:36.343Z,62.38
2023-05-05T02:29:08.617Z,62.98
2023-05-05T02:31:45.199Z,63.16
2023-05-05T02:34:22.644Z,63.31
2023-05-05T02:36:54.445Z,62.87
2023-05-05T02:39:33.138Z,62.69
2023-05-05T02:42:09.482Z,62.43
2023-05-05T02:44:42.513Z,63.32
2023-05-05T02:47:13.519Z,62.54
2023-05-05T02:49:43.903Z,63.44
2023-05-05T02:52:12.230Z,63.38
2023-05-05T02:54:42.143Z,63.41
2023-05-05T02:57:19.441Z,62.96
2023-05-05T02:59:59.484Z,63.14
2023-05-05T03:02:35.062Z,63.49
2023-05-05T03:05:12.958Z,62.72
2023-05-05T03:07:54.734Z,62.58
2023-05-05T03:10:30.133Z,62.69
2023-05-05T03:13:03.415Z,62.43
2023-05-05T03:15:47.105Z,62.85
2023-05-05T03:18:19.277Z,62.42
2023-05-05T03:20:55.088Z,63.15
2023-05-05T03:23:23.388Z,63.05
2023-05-05T03:25:56.693Z,63.04
2023-05-05T03:28:31.163Z,62.82
2023-05-05T03:31:02.400Z,62.96
2023-05-05T03:33:33.140Z,63.51
2023-05-05T03:36:03.716Z,62.79
2023-05-05T03:38:31.782Z,62.74
2023-05-05T03:41:03.469Z,63.52
2023-05-05T03:43:32.833Z,63.11
2023-05-05T03:46:01.093Z,62.76
2023-05-05T03:48:30.327Z,62.95
2023-05-05T03:50:58.746Z,63.07
2023-05-05T03:53:30.816Z,63.55
2023-05-05T03:55:59.312Z,63.63
2023-05-05T03:58:27.542Z,63.95
2023-05-05T04:00:55.643Z,63.77
2023-05-05T04:03:23.888Z,63.84
2023-05-05T04:05:52.157Z,63.11
2023-05-05T04:08:21.144Z,62.83
2023-05-05T04:10:51.102Z,62.37
2023-05-05T04:13:19.233Z,63.09
2023-05-05T04:15:48.091Z,62.29
2023-05-05T04:18:17.420Z,62.22
2023-05-05T04:20:45.661Z,62.48
2023-05-05T04:23:13.996Z,62.86
2023-05-05T04:25:42.779Z,63.32
2023-05-05T04:28:13.920Z,63.33
2023-05-05T04:30:42.641Z,62.76
2023-05-05T04:33:10.886Z,63.56
2023-05-05T04:35:39.079Z,62.87
2023-05-05T04:38:07.274Z,62.64
2023-05-05T04:40:40.075Z,62.72
2023-05-05T04:43:08.961Z,63.18
2023-05-05T04:45:39.304Z,62.67
2023-05-05T04:48:07.805Z,63.91
2023-05-05T04:50:37.100Z,63.05
2023-05-05T04:53:05.365Z,63.16
2023-05-05T04:55:34.043Z,62.58
2023-05-05T04:58:02.197Z,61.63
2023-05-05T05:00:30.633Z,62.13
2023-05-05T05:03:00.281Z,62.64
2023-05-05T05:05:28.410Z,62.14
2023-05-05T05:07:57.004Z,62.31
2023-05-05T05:10:25.165Z,61.31
2023-05-05T05:12:53.274Z,60.63
2023-05-05T05:15:21.977Z,61.22
2023-05-05T05:17:50.380Z,62.57
2023-05-05T05:20:20.367Z,61.46
2023-05-05T05:22:48.640Z,61.37
2023-05-05T05:25:19.722Z,62.15
2023-05-05T05:28:01.968Z,62.35
2023-05-05T05:30:37.490Z,61.30
2023-05-05T05:33:07.913Z,60.35
2023-05-05T05:35:37.732Z,60.94
2023-05-05T05:38:06.323Z,61.32
2023-05-05T05:40:35.088Z,60.94
2023-05-05T05:43:04.184Z,60.96
2023-05-05T05:45:32.636Z,61.15
2023-05-05T05:48:00.908Z,61.98
2023-05-05T05:50:29.098Z,62.19
2023-05-05T05:53:00.733Z,63.42
2023-05-05T05:55:29.824Z,66.25
2023-05-05T05:57:58.092Z,66.71
2023-05-05T06:00:27.112Z,66.66
2023-05-05T06:03:03.097Z,68.13
2023-05-05T06:05:34.468Z,68.73
2023-05-05T06:08:04.040Z,68.11
2023-05-05T06:10:35.708Z,71.11
2023-05-05T06:13:11.395Z,70.06
2023-05-05T06:15:43.628Z,72.53
2023-05-05T06:18:14.039Z,71.28
2023-05-05T06:20:43.505Z,72.07
2023-05-05T06:23:14.311Z,71.55
2023-05-05T06:25:48.060Z,71.42
2023-05-05T06:28:16.293Z,71.30
2023-05-05T06:30:44.854Z,71.29
2023-05-05T06:33:13.117Z,70.50
2023-05-05T06:35:41.244Z,70.71
2023-05-05T06:38:09.813Z,71.29
2023-05-05T06:40:39.243Z,70.91
2023-05-05T06:43:07.794Z,68.94
2023-05-05T06:45:43.665Z,68.83
2023-05-05T06:48:11.977Z,69.53
2023-05-05T06:50:40.003Z,67.80
2023-05-05T06:53:08.110Z,68.41
2023-05-05T06:55:36.281Z,68.07
2023-05-05T06:58:05.826Z,71.22
2023-05-05T07:00:34.069Z,73.78
2023-05-05T07:03:02.422Z,71.08
2023-05-05T07:05:31.090Z,70.36
2023-05-05T07:07:59.757Z,71.10
2023-05-05T07:10:28.892Z,75.19
2023-05-05T07:12:57.160Z,81.56
2023-05-05T07:15:29.188Z,83.35
2023-05-05T07:17:58.238Z,86.12
2023-05-05T07:20:27.154Z,87.35
2023-05-05T07:22:55.270Z,87.28
2023-05-05T07:25:23.424Z,88.46
2023-05-05T07:27:51.720Z,89.43
2023-05-05T07:30:20.170Z,90.95
2023-05-05T07:32:51.330Z,91.88
2023-05-05T07:35:19.623Z,88.44
2023-05-05T07:37:48.082Z,90.94
2023-05-05T07:40:16.506Z,90.13
2023-05-05T07:42:44.658Z,90.43
2023-05-05T07:45:12.819Z,90.41
2023-05-05T07:47:41.767Z,89.72
2023-05-05T07:50:12.428Z,89.52
2023-05-05T07:55:11.740Z,90.12
2023-05-05T07:57:39.878Z,89.70
2023-05-05T08:00:09.490Z,88.23
2023-05-05T08:02:41.244Z,90.49
2023-05-05T08:05:11.467Z,91.01
2023-05-05T08:07:41.527Z,90.93
2023-05-05T08:10:11.264Z,91.26
2023-05-05T08:12:39.502Z,90.45
2023-05-05T08:15:08.786Z,90.56
2023-05-05T08:17:48.662Z,88.85
2023-05-05T08:20:19.443Z,91.56
2023-05-05T08:22:48.003Z,90.37
2023-05-05T08:25:16.224Z,88.73
2023-05-05T08:27:44.609Z,86.89
2023-05-05T08:30:13.424Z,88.97
2023-05-05T08:32:41.616Z,89.03
2023-05-05T08:35:10.614Z,86.02
2023-05-05T08:37:40.524Z,83.12
2023-05-05T08:40:12.219Z,86.14
2023-05-05T08:42:40.466Z,85.51
2023-05-05T08:45:10.655Z,84.29
2023-05-05T08:47:40.253Z,83.71
2023-05-05T08:50:11.858Z,83.71
2023-05-05T08:52:44.352Z,82.55
2023-05-05T08:55:24.068Z,80.77
2023-05-05T08:57:53.888Z,81.38
2023-05-05T09:00:22.705Z,80.66
2023-05-05T09:02:51.385Z,80.82
2023-05-05T09:05:19.796Z,80.90
2023-05-05T09:07:49.487Z,77.86
2023-05-05T09:10:18.384Z,78.07
2023-05-05T09:12:46.625Z,73.91
2023-05-05T09:15:16.379Z,72.85
2023-05-05T09:17:44.669Z,71.12
2023-05-05T09:20:14.319Z,70.42
2023-05-05T09:22:44.907Z,70.56
2023-05-05T09:25:16.526Z,71.02
2023-05-05T09:27:46.868Z,69.39
2023-05-05T09:30:18.060Z,69.54
2023-05-05T09:32:48.083Z,69.92
2023-05-05T09:35:16.986Z,66.96
2023-05-05T09:37:46.075Z,66.64
2023-05-05T09:40:18.316Z,68.62
2023-05-05T09:42:47.348Z,68.94
2023-05-05T09:45:28.692Z,67.25
2023-05-05T09:48:00.403Z,66.34
2023-05-05T09:50:31.043Z,65.64
2023-05-05T09:53:00.864Z,65.64
2023-05-05T09:55:31.984Z,67.43
2023-05-05T09:58:19.267Z,65.64
2023-05-05T10:00:47.717Z,65.54
2023-05-05T10:03:16.178Z,65.16
2023-05-05T10:05:52.049Z,66.05
2023-05-05T10:08:22.014Z,65.04
2023-05-05T10:10:55.909Z,63.90
2023-05-05T10:13:26.106Z,65.37
2023-05-05T10:15:55.644Z,62.32
2023-05-05T10:18:25.055Z,62.23
2023-05-05T10:20:59.308Z,62.50
2023-05-05T10:23:33.989Z,61.76
2023-05-05T10:26:05.918Z,60.87
2023-05-05T10:28:35.681Z,60.07
2023-05-05T10:31:16.527Z,63.00
2023-05-05T10:33:56.219Z,62.50
2023-05-05T10:36:26.429Z,61.68
2023-05-05T10:38:57.798Z,61.24
2023-05-05T10:41:27.628Z,62.30
2023-05-05T10:43:57.781Z,60.96
2023-05-05T10:46:27.955Z,60.08
2023-05-05T10:49:00.807Z,60.32
2023-05-05T10:51:40.331Z,58.51
2023-05-05T10:54:15.288Z,59.77
2023-05-05T10:56:45.160Z,58.04
2023-05-05T10:59:41.360Z,59.89
2023-05-05T11:02:28.046Z,60.14
2023-05-05T11:05:07.539Z,59.17
2023-05-05T11:07:35.982Z,58.95
2023-05-05T11:10:06.121Z,59.12
2023-05-05T11:13:13.501Z,60.99
2023-05-05T11:15:41.863Z,58.97
2023-05-05T11:18:29.997Z,56.71
2023-05-05T11:21:15.636Z,56.99
2023-05-05T11:23:52.403Z,54.42
2023-05-05T11:26:51.088Z,56.19
2023-05-05T11:29:20.561Z,56.14
2023-05-05T11:32:12.389Z,54.58
2023-05-05T11:34:50.145Z,57.56
2023-05-05T11:37:18.336Z,55.77
2023-05-05T11:40:01.462Z,55.29
2023-05-05T11:42:30.334Z,55.02
2023-05-05T11:45:00.562Z,54.23
2023-05-05T11:47:30.856Z,52.54
2023-05-05T11:49:59.296Z,53.54
2023-05-05T11:52:30.909Z,51.36
2023-05-05T11:55:03.793Z,53.01
2023-05-05T11:57:32.275Z,52.10
2023-05-05T12:00:03.592Z,50.68
2023-05-05T12:02:35.218Z,52.09
2023-05-05T12:05:04.003Z,51.00
2023-05-05T12:07:34.220Z,53.31
2023-05-05T12:10:02.725Z,53.37
2023-05-05T12:12:39.431Z,52.72
2023-05-05T12:15:10.546Z,53.21
2023-05-05T12:17:45.051Z,53.50
2023-05-05T12:20:14.268Z,53.56
2023-05-05T12:22:42.766Z,52.95
2023-05-05T12:25:11.728Z,53.63
2023-05-05T12:27:41.360Z,51.20
2023-05-05T12:30:16.904Z,49.39
2023-05-05T12:32:46.482Z,47.67
2023-05-05T12:35:16.148Z,47.57
2023-05-05T12:37:44.868Z,47.55
2023-05-05T12:40:44.748Z,49.12
2023-05-05T12:43:25.553Z,51.29
2023-05-05T12:46:06.081Z,48.78
2023-05-05T12:48:35.749Z,48.83
2023-05-05T12:51:18.144Z,50.67
2023-05-05T12:53:47.396Z,51.40
2023-05-05T12:56:35.440Z,51.16
2023-05-05T12:59:05.482Z,47.38
2023-05-05T13:01:35.756Z,52.45
2023-05-05T13:04:13.029Z,54.25
2023-05-05T13:06:43.123Z,53.94
2023-05-05T13:09:24.139Z,54.37
2023-05-05T13:11:53.265Z,55.95
2023-05-05T13:14:21.811Z,55.31
2023-05-05T13:16:51.532Z,57.48
2023-05-05T13:19:19.808Z,56.44
2023-05-05T13:21:48.189Z,59.33
2023-05-05T13:26:48.562Z,59.13
2023-05-05T13:29:17.554Z,58.87
2023-05-05T13:31:46.412Z,59.62
2023-05-05T13:34:16.083Z,58.15
2023-05-05T13:36:44.191Z,57.39
2023-05-05T13:39:12.605Z,56.32
2023-05-05T13:41:40.915Z,55.85
2023-05-05T13:44:09.118Z,56.83
2023-05-05T13:46:37.231Z,56.14
2023-05-05T13:49:05.421Z,56.42
2023-05-05T13:51:35.607Z,57.26
2023-05-05T13:54:04.006Z,58.54
2023-05-05T13:56:32.591Z,58.55
2023-05-05T13:59:00.966Z,55.46
2023-05-05T14:01:30.140Z,58.40
2023-05-05T14:03:58.840Z,57.29
2023-05-05T14:06:27.766Z,62.30
2023-05-05T14:08:57.264Z,56.57
2023-05-05T14:11:25.383Z,57.87
2023-05-05T14:13:53.631Z,57.90
2023-05-05T14:16:21.770Z,57.83
2023-05-05T14:18:49.922Z,58.89
2023-05-05T14:21:18.048Z,59.58
2023-05-05T14:23:46.398Z,57.43
2023-05-05T14:26:16.203Z,60.80
2023-05-05T14:28:47.235Z,63.73
2023-05-05T14:31:17.573Z,66.48
2023-05-05T14:33:46.022Z,68.95
2023-05-05T14:36:14.400Z,65.71
2023-05-05T14:38:43.894Z,65.26
2023-05-05T14:41:12.385Z,67.88
2023-05-05T14:43:42.056Z,66.91
2023-05-05T14:46:10.629Z,70.28
2023-05-05T14:48:39.400Z,78.55
2023-05-05T14:51:08.290Z,75.07
2023-05-05T14:53:36.573Z,79.09
2023-05-05T14:56:04.964Z,80.58
2023-05-05T14:58:33.234Z,83.05
2023-05-05T15:01:02.922Z,85.63
2023-05-05T15:03:31.749Z,90.78
2023-05-05T15:06:00.404Z,94.80
2023-05-05T15:08:29.069Z,95.57
2023-05-05T15:10:57.482Z,96.64
2023-05-05T15:13:25.700Z,99.03
2023-05-05T15:15:54.200Z,99.65
2023-05-05T15:18:24.221Z,100.00
2023-05-05T15:20:52.423Z,97.87
2023-05-05T15:23:21.243Z,98.52
2023-05-05T15:25:49.712Z,97.29
2023-05-05T15:28:18.794Z,96.82
2023-05-05T15:30:47.544Z,95.05
2023-05-05T15:33:15.817Z,96.47
2023-05-05T15:35:46.786Z,96.99
2023-05-05T15:38:15.480Z,96.18
2023-05-05T15:40:47.215Z,97.34
2023-05-05T15:43:17.576Z,98.44
2023-05-05T15:45:45.977Z,98.88
2023-05-05T15:48:14.492Z,99.58
2023-05-05T15:50:42.803Z,98.58
2023-05-05T15:53:12.464Z,99.40
2023-05-05T15:55:40.977Z,100.00
2023-05-05T15:58:09.087Z,96.65
2023-05-05T16:00:37.403Z,97.91
2023-05-05T16:03:05.958Z,97.92
2023-05-05T16:05:34.419Z,96.38
2023-05-05T16:08:07.402Z,98.51
2023-05-05T16:10:36.892Z,97.61
2023-05-05T16:13:05.106Z,94.94
2023-05-05T16:15:33.281Z,93.76
2023-05-05T16:18:01.400Z,95.18
2023-05-05T16:20:29.718Z,92.50
2023-05-05T16:22:58.575Z,94.89
2023-05-05T16:25:28.104Z,96.48
2023-05-05T16:27:57.675Z,96.76
2023-05-05T16:30:26.001Z,97.31
2023-05-05T16:32:54.841Z,94.06
2023-05-05T16:35:23.938Z,92.75
2023-05-05T16:37:52.560Z,94.03
2023-05-05T16:40:20.636Z,96.19
2023-05-05T16:42:48.915Z,97.16
2023-05-05T16:45:18.511Z,97.91
2023-05-05T16:47:46.872Z,98.67
2023-05-05T16:50:16.557Z,98.45
2023-05-05T16:52:45.427Z,95.30
2023-05-05T16:55:13.625Z,96.33
2023-05-05T16:57:42.111Z,98.42
2023-05-05T17:00:12.151Z,98.15
2023-05-05T17:02:41.724Z,98.77
2023-05-05T17:05:10.950Z,99.13
2023-05-05T17:07:40.208Z,99.05
2023-05-05T17:10:09.661Z,99.89
2023-05-05T17:12:37.892Z,99.03
2023-05-05T17:15:07.037Z,99.42
2023-05-05T17:17:35.156Z,99.42
2023-05-05T17:20:04.854Z,100.00
2023-05-05T17:22:32.966Z,99.07
2023-05-05T17:25:00.868Z,98.61
2023-05-05T17:27:28.769Z,98.12
2023-05-05T17:29:56.879Z,98.39
2023-05-05T17:32:24.829Z,98.07
2023-05-05T17:34:52.947Z,97.35
2023-05-05T17:37:22.144Z,98.26
2023-05-05T17:39:50.083Z,97.54
2023-05-05T17:42:22.824Z,96.58
2023-05-05T17:44:51.006Z,95.71
2023-05-05T17:47:22.523Z,97.19
2023-05-05T17:49:52.576Z,96.83
2023-05-05T17:52:24.122Z,97.49
2023-05-05T17:54:53.008Z,95.88
2023-05-05T17:57:22.975Z,96.29
2023-05-05T17:59:53.512Z,96.93
2023-05-05T18:02:22.239Z,97.89
2023-05-05T18:04:51.122Z,96.78
2023-05-05T18:07:22.819Z,97.81
2023-05-05T18:09:52.167Z,97.10
2023-05-05T18:12:21.948Z,96.14
2023-05-05T18:14:50.214Z,97.01
2023-05-05T18:17:18.398Z,97.40
2023-05-05T18:19:49.124Z,97.89
2023-05-05T18:22:17.687Z,98.74
2023-05-05T18:24:47.744Z,98.61
2023-05-05T18:27:17.283Z,99.72
2023-05-05T18:29:47.310Z,99.59
2023-05-05T18:32:17.480Z,97.04
2023-05-05T18:34:45.815Z,95.73
2023-05-05T18:37:14.913Z,97.50
2023-05-05T18:39:44.144Z,98.40
2023-05-05T18:42:15.353Z,95.89
2023-05-05T18:45:10.627Z,96.10
2023-05-05T18:47:39.683Z,97.23
2023-05-05T18:50:09.982Z,97.83
2023-05-05T18:52:38.482Z,96.33
2023-05-05T18:57:40.478Z,95.06
2023-05-05T19:00:13.203Z,96.35
2023-05-05T19:02:41.472Z,97.62
2023-05-05T19:05:10.824Z,98.74
2023-05-05T19:07:41.280Z,99.46
2023-05-05T19:10:11.618Z,99.91
2023-05-05T19:12:41.534Z,100.00
2023-05-05T19:15:13.915Z,100.00
2023-05-05T19:17:43.201Z,100.00
2023-05-05T19:20:13.233Z,99.63
2023-05-05T19:22:42.090Z,99.01
2023-05-05T19:25:14.272Z,98.68
2023-05-05T19:27:44.822Z,99.94
2023-05-05T19:30:13.891Z,99.35
2023-05-05T19:32:43.240Z,100.00
2023-05-05T19:35:12.359Z,99.46
2023-05-05T19:37:41.376Z,100.00
2023-05-05T19:40:11.171Z,100.00
2023-05-05T19:42:41.173Z,100.00
2023-05-05T19:45:12.225Z,100.00
2023-05-05T19:47:42.360Z,100.00
2023-05-05T19:50:16.158Z,100.00
2023-05-05T19:52:45.745Z,100.00
2023-05-05T19:55:14.384Z,100.00
2023-05-05T19:57:43.950Z,100.00
2023-05-05T20:00:16.230Z,100.00
2023-05-05T20:02:45.822Z,100.00
2023-05-05T20:05:18.297Z,100.00
2023-05-05T20:07:47.492Z,100.00
2023-05-05T20:10:16.833Z,100.00
2023-05-05T20:12:48.344Z,100.00
2023-05-05T20:15:22.406Z,100.00
2023-05-05T20:17:56.923Z,100.00
2023-05-05T20:20:25.809Z,100.00
2023-05-05T20:23:44.313Z,100.00
2023-05-05T20:26:24.476Z,100.00
2023-05-05T20:28:57.173Z,100.00
2023-05-05T20:31:26.571Z,100.00
2023-05-05T20:33:54.524Z,100.00
2023-05-05T20:36:22.834Z,100.00
2023-05-05T20:38:51.867Z,100.00
2023-05-05T20:41:19.648Z,100.00
2023-05-05T20:43:47.480Z,100.00
2023-05-05T20:46:15.328Z,100.00
2023-05-05T20:48:45.090Z,100.00
2023-05-05T20:51:13.073Z,100.00
2023-05-05T20:53:41.065Z,100.00
2023-05-05T20:56:09.193Z,100.00
2023-05-05T20:58:37.682Z,100.00
2023-05-05T21:01:06.068Z,100.00
2023-05-05T21:03:34.127Z,100.00
2023-05-05T21:06:03.931Z,100.00
2023-05-05T21:08:31.721Z,100.00
2023-05-05T21:10:59.486Z,100.00
2023-05-05T21:13:27.230Z,100.00
2023-05-05T21:15:57.124Z,100.00
2023-05-05T21:18:27.536Z,100.00
2023-05-05T21:20:55.367Z,100.00
2023-05-05T21:23:24.893Z,100.00
2023-05-05T21:25:53.246Z,100.00
2023-05-05T21:28:25.150Z,100.00
2023-05-05T21:31:19.625Z,100.00
2023-05-05T21:33:43.125Z,100.00
2023-05-05T21:36:11.384Z,100.00
2023-05-05T21:38:40.995Z,100.00
2023-05-05T21:41:09.306Z,100.00
2023-05-05T21:43:37.713Z,100.00
2023-05-05T21:46:06.602Z,100.00
2023-05-05T21:48:34.997Z,100.00
2023-05-05T21:51:03.265Z,100.00
2023-05-05T21:53:31.625Z,100.00
2023-05-05T21:56:01.304Z,100.00
2023-05-05T21:58:29.592Z,100.00
2023-05-05T22:00:59.822Z,100.00
2023-05-05T22:03:28.497Z,100.00
2023-05-05T22:05:56.825Z,100.00
2023-05-05T22:08:25.210Z,100.00
2023-05-05T22:10:53.495Z,100.00
2023-05-05T22:13:23.270Z,100.00
2023-05-05T22:15:51.792Z,100.00
2023-05-05T22:18:20.123Z,100.00
2023-05-05T22:20:48.448Z,100.00
2023-05-05T22:23:17.386Z,100.00
2023-05-05T22:25:46.586Z,100.00
2023-05-05T22:28:14.883Z,100.00
2023-05-05T22:30:44.526Z,100.00
2023-05-05T22:33:12.873Z,100.00
2023-05-05T22:35:43.150Z,100.00
2023-05-05T22:38:12.179Z,100.00
2023-05-05T22:40:40.624Z,100.00
2023-05-05T22:43:08.903Z,100.00
2023-05-05T22:45:37.265Z,100.00
2023-05-05T22:48:07.406Z,100.00
2023-05-05T22:50:36.317Z,100.00
2023-05-05T22:53:08.035Z,100.00
2023-05-05T22:55:36.364Z,100.00
2023-05-05T22:58:05.050Z,100.00
2023-05-05T23:00:33.376Z,100.00
2023-05-05T23:03:01.915Z,100.00
2023-05-05T23:05:34.425Z,100.00
2023-05-05T23:08:02.956Z,100.00
2023-05-05T23:10:31.422Z,100.00
2023-05-05T23:12:59.851Z,100.00
2023-05-05T23:15:28.706Z,100.00
2023-05-05T23:17:57.087Z,100.00
2023-05-05T23:20:25.612Z,100.00
2023-05-05T23:22:56.249Z,100.00
2023-05-05T23:25:25.121Z,100.00
2023-05-05T23:27:53.382Z,100.00
2023-05-05T23:30:21.911Z,100.00
2023-05-05T23:32:50.205Z,100.00
2023-05-05T23:35:18.564Z,100.00
2023-05-05T23:37:46.924Z,100.00
2023-05-05T23:40:16.717Z,100.00
2023-05-05T23:42:45.154Z,100.00
2023-05-05T23:45:13.627Z,100.00
2023-05-05T23:47:42.012Z,100.00
2023-05-05T23:50:10.988Z,100.00
2023-05-05T23:52:39.189Z,100.00
2023-05-05T23:55:08.802Z,100.00
2023-05-05T23:57:38.682Z,100.00
